sensor_id;sensor_type;location;lat;lon;timestamp;P1;durP1;ratioP1;P2;durP2;ratioP2
20705;SDS011;10514;49.468;11.044;2022-10-16T00:01:29;2.72;;;1.40;;
20705;SDS011;10514;49.468;11.044;2022-10-16T00:03:56;7.22;;;1.55;;
20705;SDS011;10514;49.468;11.044;2022-10-16T00:06:22;2.83;;;1.48;;
20705;SDS011;10514;49.468;11.044;2022-10-16T00:08:49;3.13;;;1.60;;
20705;SDS011;10514;49.468;11.044;2022-10-16T00:13:42;2.17;;;1.35;;
20705;SDS011;10514;49.468;11.044;2022-10-16T00:16:09;3.70;;;1.70;;
20705;SDS011;10514;49.468;11.044;2022-10-16T00:18:35;1.75;;;1.20;;
20705;SDS011;10514;49.468;11.044;2022-10-16T00:21:05;5.18;;;1.73;;
20705;SDS011;10514;49.468;11.044;2022-10-16T00:23:32;2.30;;;1.65;;
20705;SDS011;10514;49.468;11.044;2022-10-16T00:25:59;4.22;;;1.63;;
20705;SDS011;10514;49.468;11.044;2022-10-16T00:28:25;2.15;;;1.38;;
20705;SDS011;10514;49.468;11.044;2022-10-16T00:30:51;2.33;;;1.75;;
20705;SDS011;10514;49.468;11.044;2022-10-16T00:33:17;6.15;;;1.58;;
20705;SDS011;10514;49.468;11.044;2022-10-16T00:35:43;3.60;;;1.45;;
20705;SDS011;10514;49.468;11.044;2022-10-16T00:38:09;2.13;;;1.58;;
20705;SDS011;10514;49.468;11.044;2022-10-16T00:40:35;5.38;;;1.85;;
20705;SDS011;10514;49.468;11.044;2022-10-16T00:43:02;3.38;;;1.20;;
20705;SDS011;10514;49.468;11.044;2022-10-16T00:45:28;2.63;;;1.60;;
20705;SDS011;10514;49.468;11.044;2022-10-16T00:47:55;2.72;;;1.52;;
20705;SDS011;10514;49.468;11.044;2022-10-16T00:50:31;1.67;;;1.40;;
20705;SDS011;10514;49.468;11.044;2022-10-16T00:52:57;3.35;;;1.83;;
20705;SDS011;10514;49.468;11.044;2022-10-16T00:55:24;3.85;;;1.60;;
20705;SDS011;10514;49.468;11.044;2022-10-16T00:57:50;2.15;;;1.50;;
20705;SDS011;10514;49.468;11.044;2022-10-16T01:00:21;3.88;;;1.55;;
20705;SDS011;10514;49.468;11.044;2022-10-16T01:02:51;4.05;;;1.73;;
20705;SDS011;10514;49.468;11.044;2022-10-16T01:05:22;3.53;;;1.75;;
20705;SDS011;10514;49.468;11.044;2022-10-16T01:07:56;4.60;;;1.80;;
20705;SDS011;10514;49.468;11.044;2022-10-16T01:12:57;2.17;;;1.40;;
20705;SDS011;10514;49.468;11.044;2022-10-16T01:15:40;5.43;;;1.98;;
20705;SDS011;10514;49.468;11.044;2022-10-16T01:18:09;3.15;;;1.40;;
20705;SDS011;10514;49.468;11.044;2022-10-16T01:20:37;2.38;;;1.40;;
20705;SDS011;10514;49.468;11.044;2022-10-16T01:23:21;2.08;;;1.63;;
20705;SDS011;10514;49.468;11.044;2022-10-16T01:31:11;2.75;;;1.67;;
20705;SDS011;10514;49.468;11.044;2022-10-16T01:33:42;3.50;;;1.60;;
20705;SDS011;10514;49.468;11.044;2022-10-16T01:36:16;2.10;;;1.42;;
20705;SDS011;10514;49.468;11.044;2022-10-16T01:38:44;2.97;;;1.63;;
20705;SDS011;10514;49.468;11.044;2022-10-16T01:41:16;4.20;;;1.77;;
20705;SDS011;10514;49.468;11.044;2022-10-16T01:43:44;1.67;;;1.45;;
20705;SDS011;10514;49.468;11.044;2022-10-16T01:46:12;1.75;;;1.52;;
20705;SDS011;10514;49.468;11.044;2022-10-16T01:48:41;4.55;;;1.52;;
20705;SDS011;10514;49.468;11.044;2022-10-16T01:51:08;2.75;;;1.60;;
20705;SDS011;10514;49.468;11.044;2022-10-16T01:53:36;8.82;;;1.80;;
20705;SDS011;10514;49.468;11.044;2022-10-16T01:56:03;6.18;;;1.50;;
20705;SDS011;10514;49.468;11.044;2022-10-16T01:58:33;3.00;;;1.75;;
20705;SDS011;10514;49.468;11.044;2022-10-16T02:00:59;5.18;;;1.60;;
20705;SDS011;10514;49.468;11.044;2022-10-16T02:03:27;4.40;;;1.40;;
20705;SDS011;10514;49.468;11.044;2022-10-16T02:05:54;5.90;;;1.70;;
20705;SDS011;10514;49.468;11.044;2022-10-16T02:08:22;6.25;;;1.73;;
20705;SDS011;10514;49.468;11.044;2022-10-16T02:10:48;4.35;;;2.30;;
20705;SDS011;10514;49.468;11.044;2022-10-16T02:13:26;2.85;;;1.42;;
20705;SDS011;10514;49.468;11.044;2022-10-16T02:15:53;2.58;;;1.60;;
20705;SDS011;10514;49.468;11.044;2022-10-16T02:18:19;4.68;;;1.60;;
20705;SDS011;10514;49.468;11.044;2022-10-16T02:20:50;3.05;;;1.65;;
20705;SDS011;10514;49.468;11.044;2022-10-16T02:23:23;6.03;;;1.25;;
20705;SDS011;10514;49.468;11.044;2022-10-16T02:25:50;3.03;;;1.38;;
20705;SDS011;10514;49.468;11.044;2022-10-16T02:28:18;4.13;;;1.17;;
20705;SDS011;10514;49.468;11.044;2022-10-16T02:30:46;5.45;;;1.52;;
20705;SDS011;10514;49.468;11.044;2022-10-16T02:33:15;2.45;;;1.58;;
20705;SDS011;10514;49.468;11.044;2022-10-16T02:35:41;2.72;;;1.35;;
20705;SDS011;10514;49.468;11.044;2022-10-16T02:38:08;3.78;;;1.60;;
20705;SDS011;10514;49.468;11.044;2022-10-16T02:40:35;2.33;;;1.40;;
20705;SDS011;10514;49.468;11.044;2022-10-16T02:43:02;2.28;;;1.63;;
20705;SDS011;10514;49.468;11.044;2022-10-16T02:45:28;2.15;;;1.23;;
20705;SDS011;10514;49.468;11.044;2022-10-16T02:47:54;3.83;;;1.30;;
20705;SDS011;10514;49.468;11.044;2022-10-16T02:50:20;5.15;;;1.60;;
20705;SDS011;10514;49.468;11.044;2022-10-16T02:52:47;4.40;;;1.48;;
20705;SDS011;10514;49.468;11.044;2022-10-16T02:55:13;6.40;;;1.25;;
20705;SDS011;10514;49.468;11.044;2022-10-16T02:57:39;5.80;;;1.45;;
20705;SDS011;10514;49.468;11.044;2022-10-16T03:00:05;2.65;;;1.50;;
20705;SDS011;10514;49.468;11.044;2022-10-16T03:02:31;2.42;;;1.30;;
20705;SDS011;10514;49.468;11.044;2022-10-16T03:04:57;2.55;;;1.30;;
20705;SDS011;10514;49.468;11.044;2022-10-16T03:07:23;1.65;;;1.30;;
20705;SDS011;10514;49.468;11.044;2022-10-16T03:09:49;2.55;;;1.35;;
20705;SDS011;10514;49.468;11.044;2022-10-16T03:12:15;2.65;;;1.40;;
20705;SDS011;10514;49.468;11.044;2022-10-16T03:14:41;1.95;;;1.10;;
20705;SDS011;10514;49.468;11.044;2022-10-16T03:17:07;5.25;;;1.45;;
20705;SDS011;10514;49.468;11.044;2022-10-16T03:19:33;2.05;;;1.60;;
20705;SDS011;10514;49.468;11.044;2022-10-16T03:22:00;3.60;;;1.30;;
20705;SDS011;10514;49.468;11.044;2022-10-16T03:24:26;2.33;;;1.58;;
20705;SDS011;10514;49.468;11.044;2022-10-16T03:26:52;4.25;;;1.40;;
20705;SDS011;10514;49.468;11.044;2022-10-16T03:29:18;3.35;;;1.75;;
20705;SDS011;10514;49.468;11.044;2022-10-16T03:31:44;3.25;;;1.50;;
20705;SDS011;10514;49.468;11.044;2022-10-16T03:34:10;3.58;;;1.38;;
20705;SDS011;10514;49.468;11.044;2022-10-16T03:36:36;3.95;;;1.45;;
20705;SDS011;10514;49.468;11.044;2022-10-16T03:39:02;2.53;;;1.55;;
20705;SDS011;10514;49.468;11.044;2022-10-16T03:41:28;2.28;;;1.30;;
20705;SDS011;10514;49.468;11.044;2022-10-16T03:43:54;1.83;;;1.35;;
20705;SDS011;10514;49.468;11.044;2022-10-16T03:46:20;4.47;;;1.60;;
20705;SDS011;10514;49.468;11.044;2022-10-16T03:48:46;2.03;;;1.55;;
20705;SDS011;10514;49.468;11.044;2022-10-16T03:51:12;5.18;;;1.40;;
20705;SDS011;10514;49.468;11.044;2022-10-16T03:53:38;2.15;;;1.55;;
20705;SDS011;10514;49.468;11.044;2022-10-16T03:56:04;2.75;;;1.90;;
20705;SDS011;10514;49.468;11.044;2022-10-16T03:58:30;4.68;;;1.60;;
20705;SDS011;10514;49.468;11.044;2022-10-16T04:00:56;3.55;;;1.77;;
20705;SDS011;10514;49.468;11.044;2022-10-16T04:03:22;5.38;;;1.52;;
20705;SDS011;10514;49.468;11.044;2022-10-16T04:05:48;2.78;;;1.70;;
20705;SDS011;10514;49.468;11.044;2022-10-16T04:08:14;2.72;;;1.50;;
20705;SDS011;10514;49.468;11.044;2022-10-16T04:10:42;4.47;;;1.50;;
20705;SDS011;10514;49.468;11.044;2022-10-16T04:13:08;2.20;;;1.33;;
20705;SDS011;10514;49.468;11.044;2022-10-16T04:15:34;3.25;;;1.80;;
20705;SDS011;10514;49.468;11.044;2022-10-16T04:18:00;4.47;;;1.38;;
20705;SDS011;10514;49.468;11.044;2022-10-16T04:20:26;4.65;;;1.55;;
20705;SDS011;10514;49.468;11.044;2022-10-16T04:22:52;2.25;;;1.50;;
20705;SDS011;10514;49.468;11.044;2022-10-16T04:25:18;4.25;;;1.60;;
20705;SDS011;10514;49.468;11.044;2022-10-16T04:27:44;3.67;;;1.45;;
20705;SDS011;10514;49.468;11.044;2022-10-16T04:30:10;3.53;;;1.60;;
20705;SDS011;10514;49.468;11.044;2022-10-16T04:32:36;3.60;;;1.48;;
20705;SDS011;10514;49.468;11.044;2022-10-16T04:35:02;1.88;;;1.20;;
20705;SDS011;10514;49.468;11.044;2022-10-16T04:37:28;4.43;;;1.20;;
20705;SDS011;10514;49.468;11.044;2022-10-16T04:39:54;4.93;;;1.95;;
20705;SDS011;10514;49.468;11.044;2022-10-16T04:42:20;2.58;;;1.38;;
20705;SDS011;10514;49.468;11.044;2022-10-16T04:44:46;2.35;;;1.40;;
20705;SDS011;10514;49.468;11.044;2022-10-16T04:47:12;4.07;;;1.45;;
20705;SDS011;10514;49.468;11.044;2022-10-16T04:49:38;3.65;;;1.70;;
20705;SDS011;10514;49.468;11.044;2022-10-16T04:52:04;1.67;;;1.10;;
20705;SDS011;10514;49.468;11.044;2022-10-16T04:54:30;1.30;;;1.20;;
20705;SDS011;10514;49.468;11.044;2022-10-16T04:56:56;5.43;;;1.60;;
20705;SDS011;10514;49.468;11.044;2022-10-16T04:59:22;2.75;;;1.55;;
20705;SDS011;10514;49.468;11.044;2022-10-16T05:01:49;2.60;;;1.48;;
20705;SDS011;10514;49.468;11.044;2022-10-16T05:04:15;3.90;;;1.17;;
20705;SDS011;10514;49.468;11.044;2022-10-16T05:06:41;2.13;;;1.52;;
20705;SDS011;10514;49.468;11.044;2022-10-16T05:09:07;5.43;;;1.65;;
20705;SDS011;10514;49.468;11.044;2022-10-16T05:11:33;2.30;;;1.60;;
20705;SDS011;10514;49.468;11.044;2022-10-16T05:14:00;4.80;;;1.30;;
20705;SDS011;10514;49.468;11.044;2022-10-16T05:16:26;3.13;;;1.30;;
20705;SDS011;10514;49.468;11.044;2022-10-16T05:18:52;7.18;;;3.03;;
20705;SDS011;10514;49.468;11.044;2022-10-16T05:21:18;1.90;;;1.42;;
20705;SDS011;10514;49.468;11.044;2022-10-16T05:23:44;2.47;;;1.60;;
20705;SDS011;10514;49.468;11.044;2022-10-16T05:26:10;1.30;;;1.13;;
20705;SDS011;10514;49.468;11.044;2022-10-16T05:28:35;2.08;;;1.42;;
20705;SDS011;10514;49.468;11.044;2022-10-16T05:31:05;4.13;;;1.60;;
20705;SDS011;10514;49.468;11.044;2022-10-16T05:33:31;3.50;;;1.50;;
20705;SDS011;10514;49.468;11.044;2022-10-16T05:36:00;2.75;;;1.60;;
20705;SDS011;10514;49.468;11.044;2022-10-16T05:38:27;2.10;;;1.30;;
20705;SDS011;10514;49.468;11.044;2022-10-16T05:40:52;3.33;;;1.58;;
20705;SDS011;10514;49.468;11.044;2022-10-16T05:43:19;5.97;;;1.50;;
20705;SDS011;10514;49.468;11.044;2022-10-16T05:45:52;5.95;;;1.60;;
20705;SDS011;10514;49.468;11.044;2022-10-16T05:48:36;4.43;;;1.33;;
20705;SDS011;10514;49.468;11.044;2022-10-16T05:51:03;3.28;;;1.75;;
20705;SDS011;10514;49.468;11.044;2022-10-16T05:53:31;3.65;;;1.70;;
20705;SDS011;10514;49.468;11.044;2022-10-16T05:55:58;2.05;;;1.38;;
20705;SDS011;10514;49.468;11.044;2022-10-16T05:58:24;2.25;;;1.67;;
20705;SDS011;10514;49.468;11.044;2022-10-16T06:00:57;5.68;;;1.77;;
20705;SDS011;10514;49.468;11.044;2022-10-16T06:03:24;4.03;;;1.75;;
20705;SDS011;10514;49.468;11.044;2022-10-16T06:05:50;2.97;;;1.60;;
20705;SDS011;10514;49.468;11.044;2022-10-16T06:08:16;2.20;;;1.40;;
20705;SDS011;10514;49.468;11.044;2022-10-16T06:10:42;2.97;;;1.40;;
20705;SDS011;10514;49.468;11.044;2022-10-16T06:13:09;3.70;;;1.30;;
20705;SDS011;10514;49.468;11.044;2022-10-16T06:15:35;3.92;;;1.50;;
20705;SDS011;10514;49.468;11.044;2022-10-16T06:18:01;1.60;;;1.25;;
20705;SDS011;10514;49.468;11.044;2022-10-16T06:20:26;3.78;;;1.63;;
20705;SDS011;10514;49.468;11.044;2022-10-16T06:22:52;4.80;;;1.45;;
20705;SDS011;10514;49.468;11.044;2022-10-16T06:25:18;3.40;;;1.60;;
20705;SDS011;10514;49.468;11.044;2022-10-16T06:27:44;5.07;;;1.60;;
20705;SDS011;10514;49.468;11.044;2022-10-16T06:30:10;4.65;;;2.10;;
20705;SDS011;10514;49.468;11.044;2022-10-16T06:32:36;5.18;;;1.77;;
20705;SDS011;10514;49.468;11.044;2022-10-16T06:35:02;6.78;;;1.73;;
20705;SDS011;10514;49.468;11.044;2022-10-16T06:37:28;3.83;;;1.55;;
20705;SDS011;10514;49.468;11.044;2022-10-16T06:39:54;7.63;;;1.58;;
20705;SDS011;10514;49.468;11.044;2022-10-16T06:42:20;2.00;;;1.20;;
20705;SDS011;10514;49.468;11.044;2022-10-16T06:44:45;5.45;;;1.92;;
20705;SDS011;10514;49.468;11.044;2022-10-16T06:47:11;4.90;;;1.70;;
20705;SDS011;10514;49.468;11.044;2022-10-16T06:49:37;3.08;;;1.55;;
20705;SDS011;10514;49.468;11.044;2022-10-16T06:52:03;3.30;;;1.63;;
20705;SDS011;10514;49.468;11.044;2022-10-16T06:54:30;3.22;;;1.90;;
20705;SDS011;10514;49.468;11.044;2022-10-16T06:56:56;1.58;;;1.05;;
20705;SDS011;10514;49.468;11.044;2022-10-16T06:59:22;3.80;;;1.73;;
20705;SDS011;10514;49.468;11.044;2022-10-16T07:01:48;2.63;;;1.50;;
20705;SDS011;10514;49.468;11.044;2022-10-16T07:04:14;2.83;;;1.50;;
20705;SDS011;10514;49.468;11.044;2022-10-16T07:06:40;2.47;;;1.35;;
20705;SDS011;10514;49.468;11.044;2022-10-16T07:09:06;1.80;;;1.38;;
20705;SDS011;10514;49.468;11.044;2022-10-16T07:11:33;2.55;;;1.50;;
20705;SDS011;10514;49.468;11.044;2022-10-16T07:13:59;1.85;;;1.48;;
20705;SDS011;10514;49.468;11.044;2022-10-16T07:16:26;4.10;;;1.77;;
20705;SDS011;10514;49.468;11.044;2022-10-16T07:18:53;2.38;;;1.63;;
20705;SDS011;10514;49.468;11.044;2022-10-16T07:21:23;4.25;;;1.60;;
20705;SDS011;10514;49.468;11.044;2022-10-16T07:23:54;2.72;;;1.80;;
20705;SDS011;10514;49.468;11.044;2022-10-16T07:26:20;2.40;;;1.60;;
20705;SDS011;10514;49.468;11.044;2022-10-16T07:28:46;2.92;;;2.03;;
20705;SDS011;10514;49.468;11.044;2022-10-16T07:31:13;2.15;;;1.75;;
20705;SDS011;10514;49.468;11.044;2022-10-16T07:33:40;6.28;;;1.75;;
20705;SDS011;10514;49.468;11.044;2022-10-16T07:36:06;2.67;;;1.48;;
20705;SDS011;10514;49.468;11.044;2022-10-16T07:38:32;5.95;;;1.67;;
20705;SDS011;10514;49.468;11.044;2022-10-16T07:41:03;1.83;;;1.38;;
20705;SDS011;10514;49.468;11.044;2022-10-16T07:43:29;4.90;;;1.77;;
20705;SDS011;10514;49.468;11.044;2022-10-16T07:45:55;6.68;;;1.67;;
20705;SDS011;10514;49.468;11.044;2022-10-16T07:48:21;4.20;;;1.35;;
20705;SDS011;10514;49.468;11.044;2022-10-16T07:50:48;5.85;;;1.58;;
20705;SDS011;10514;49.468;11.044;2022-10-16T07:53:14;6.82;;;1.55;;
20705;SDS011;10514;49.468;11.044;2022-10-16T07:55:40;2.50;;;1.50;;
20705;SDS011;10514;49.468;11.044;2022-10-16T07:58:07;2.63;;;1.60;;
20705;SDS011;10514;49.468;11.044;2022-10-16T08:00:33;3.15;;;1.25;;
20705;SDS011;10514;49.468;11.044;2022-10-16T08:02:59;3.88;;;1.75;;
20705;SDS011;10514;49.468;11.044;2022-10-16T08:05:26;2.63;;;1.45;;
20705;SDS011;10514;49.468;11.044;2022-10-16T08:07:52;4.60;;;1.70;;
20705;SDS011;10514;49.468;11.044;2022-10-16T08:10:18;3.53;;;1.60;;
20705;SDS011;10514;49.468;11.044;2022-10-16T08:12:45;1.92;;;1.25;;
20705;SDS011;10514;49.468;11.044;2022-10-16T08:15:10;4.75;;;1.70;;
20705;SDS011;10514;49.468;11.044;2022-10-16T08:17:36;4.90;;;1.80;;
20705;SDS011;10514;49.468;11.044;2022-10-16T08:20:02;2.35;;;1.73;;
20705;SDS011;10514;49.468;11.044;2022-10-16T08:22:28;2.58;;;1.73;;
20705;SDS011;10514;49.468;11.044;2022-10-16T08:24:54;3.95;;;1.70;;
20705;SDS011;10514;49.468;11.044;2022-10-16T08:27:20;7.53;;;1.80;;
20705;SDS011;10514;49.468;11.044;2022-10-16T08:29:48;4.18;;;1.95;;
20705;SDS011;10514;49.468;11.044;2022-10-16T08:32:13;1.90;;;1.48;;
20705;SDS011;10514;49.468;11.044;2022-10-16T08:34:39;4.53;;;1.70;;
20705;SDS011;10514;49.468;11.044;2022-10-16T08:37:05;6.28;;;1.85;;
20705;SDS011;10514;49.468;11.044;2022-10-16T08:39:33;8.10;;;1.55;;
20705;SDS011;10514;49.468;11.044;2022-10-16T08:47:06;4.80;;;1.48;;
20705;SDS011;10514;49.468;11.044;2022-10-16T08:49:38;4.65;;;1.50;;
20705;SDS011;10514;49.468;11.044;2022-10-16T08:52:08;2.03;;;1.25;;
20705;SDS011;10514;49.468;11.044;2022-10-16T08:54:38;3.67;;;1.85;;
20705;SDS011;10514;49.468;11.044;2022-10-16T08:57:09;2.55;;;1.80;;
20705;SDS011;10514;49.468;11.044;2022-10-16T08:59:36;3.85;;;1.73;;
20705;SDS011;10514;49.468;11.044;2022-10-16T09:02:03;2.25;;;1.40;;
20705;SDS011;10514;49.468;11.044;2022-10-16T09:22:33;1.80;;;1.02;;
20705;SDS011;10514;49.468;11.044;2022-10-16T09:24:59;2.97;;;1.25;;
20705;SDS011;10514;49.468;11.044;2022-10-16T09:27:26;3.67;;;1.40;;
20705;SDS011;10514;49.468;11.044;2022-10-16T09:29:52;1.70;;;1.27;;
20705;SDS011;10514;49.468;11.044;2022-10-16T09:32:19;3.47;;;1.40;;
20705;SDS011;10514;49.468;11.044;2022-10-16T09:34:47;2.42;;;1.45;;
20705;SDS011;10514;49.468;11.044;2022-10-16T09:37:17;1.95;;;1.15;;
20705;SDS011;10514;49.468;11.044;2022-10-16T09:39:48;3.83;;;2.75;;
20705;SDS011;10514;49.468;11.044;2022-10-16T09:42:16;5.70;;;2.55;;
20705;SDS011;10514;49.468;11.044;2022-10-16T09:44:46;4.45;;;1.48;;
20705;SDS011;10514;49.468;11.044;2022-10-16T09:47:14;3.58;;;1.17;;
20705;SDS011;10514;49.468;11.044;2022-10-16T09:49:52;3.47;;;1.13;;
20705;SDS011;10514;49.468;11.044;2022-10-16T09:52:19;2.03;;;1.23;;
20705;SDS011;10514;49.468;11.044;2022-10-16T09:54:53;4.85;;;1.77;;
20705;SDS011;10514;49.468;11.044;2022-10-16T09:57:19;4.95;;;1.80;;
20705;SDS011;10514;49.468;11.044;2022-10-16T09:59:49;3.15;;;1.70;;
20705;SDS011;10514;49.468;11.044;2022-10-16T10:02:16;3.42;;;2.10;;
20705;SDS011;10514;49.468;11.044;2022-10-16T10:04:44;4.53;;;2.33;;
20705;SDS011;10514;49.468;11.044;2022-10-16T10:07:16;4.95;;;2.13;;
20705;SDS011;10514;49.468;11.044;2022-10-16T10:09:44;5.15;;;2.55;;
20705;SDS011;10514;49.468;11.044;2022-10-16T10:12:18;7.93;;;2.78;;
20705;SDS011;10514;49.468;11.044;2022-10-16T10:14:45;3.85;;;1.92;;
20705;SDS011;10514;49.468;11.044;2022-10-16T10:17:13;6.15;;;2.30;;
20705;SDS011;10514;49.468;11.044;2022-10-16T10:19:55;4.47;;;2.10;;
20705;SDS011;10514;49.468;11.044;2022-10-16T10:22:23;5.07;;;1.73;;
20705;SDS011;10514;49.468;11.044;2022-10-16T10:33:47;4.10;;;2.45;;
20705;SDS011;10514;49.468;11.044;2022-10-16T10:38:51;5.55;;;2.90;;
20705;SDS011;10514;49.468;11.044;2022-10-16T10:41:22;3.72;;;2.22;;
20705;SDS011;10514;49.468;11.044;2022-10-16T10:46:42;2.50;;;1.90;;
20705;SDS011;10514;49.468;11.044;2022-10-16T10:49:17;2.45;;;1.70;;
20705;SDS011;10514;49.468;11.044;2022-10-16T10:51:58;1.92;;;1.30;;
20705;SDS011;10514;49.468;11.044;2022-10-16T10:54:41;2.00;;;1.55;;
20705;SDS011;10514;49.468;11.044;2022-10-16T10:57:19;8.02;;;2.75;;
20705;SDS011;10514;49.468;11.044;2022-10-16T11:02:46;7.25;;;1.60;;
20705;SDS011;10514;49.468;11.044;2022-10-16T11:11:14;5.85;;;2.00;;
20705;SDS011;10514;49.468;11.044;2022-10-16T11:15:52;2.88;;;1.38;;
20705;SDS011;10514;49.468;11.044;2022-10-16T11:18:21;2.05;;;1.23;;
20705;SDS011;10514;49.468;11.044;2022-10-16T11:20:52;1.63;;;1.30;;
20705;SDS011;10514;49.468;11.044;2022-10-16T11:23:29;2.92;;;1.40;;
20705;SDS011;10514;49.468;11.044;2022-10-16T11:25:57;3.28;;;1.38;;
20705;SDS011;10514;49.468;11.044;2022-10-16T11:28:35;2.72;;;1.30;;
20705;SDS011;10514;49.468;11.044;2022-10-16T11:31:20;3.65;;;1.50;;
20705;SDS011;10514;49.468;11.044;2022-10-16T11:34:17;3.63;;;1.42;;
20705;SDS011;10514;49.468;11.044;2022-10-16T11:39:31;1.98;;;1.23;;
20705;SDS011;10514;49.468;11.044;2022-10-16T11:49:57;2.72;;;1.10;;
20705;SDS011;10514;49.468;11.044;2022-10-16T11:57:32;1.77;;;1.25;;
20705;SDS011;10514;49.468;11.044;2022-10-16T12:00:01;2.55;;;1.50;;
20705;SDS011;10514;49.468;11.044;2022-10-16T12:05:14;1.45;;;1.00;;
20705;SDS011;10514;49.468;11.044;2022-10-16T12:07:55;2.50;;;1.50;;
20705;SDS011;10514;49.468;11.044;2022-10-16T12:10:25;2.63;;;1.40;;
20705;SDS011;10514;49.468;11.044;2022-10-16T12:12:54;2.63;;;1.45;;
20705;SDS011;10514;49.468;11.044;2022-10-16T12:15:28;3.67;;;1.35;;
20705;SDS011;10514;49.468;11.044;2022-10-16T12:17:55;4.93;;;1.17;;
20705;SDS011;10514;49.468;11.044;2022-10-16T12:20:28;1.88;;;1.30;;
20705;SDS011;10514;49.468;11.044;2022-10-16T12:22:56;6.85;;;1.40;;
20705;SDS011;10514;49.468;11.044;2022-10-16T12:36:06;2.60;;;1.40;;
20705;SDS011;10514;49.468;11.044;2022-10-16T12:38:47;4.18;;;1.20;;
20705;SDS011;10514;49.468;11.044;2022-10-16T12:41:23;3.47;;;1.15;;
20705;SDS011;10514;49.468;11.044;2022-10-16T12:43:49;1.73;;;1.10;;
20705;SDS011;10514;49.468;11.044;2022-10-16T12:48:42;3.65;;;1.42;;
20705;SDS011;10514;49.468;11.044;2022-10-16T12:51:51;1.98;;;1.17;;
20705;SDS011;10514;49.468;11.044;2022-10-16T12:54:02;2.15;;;1.10;;
20705;SDS011;10514;49.468;11.044;2022-10-16T13:07:03;1.95;;;1.20;;
20705;SDS011;10514;49.468;11.044;2022-10-16T13:09:49;1.15;;;1.00;;
20705;SDS011;10514;49.468;11.044;2022-10-16T13:14:58;2.83;;;1.35;;
20705;SDS011;10514;49.468;11.044;2022-10-16T13:20:05;3.53;;;1.20;;
20705;SDS011;10514;49.468;11.044;2022-10-16T13:22:41;1.48;;;1.13;;
20705;SDS011;10514;49.468;11.044;2022-10-16T13:27:55;2.58;;;1.02;;
20705;SDS011;10514;49.468;11.044;2022-10-16T13:30:25;1.80;;;1.13;;
20705;SDS011;10514;49.468;11.044;2022-10-16T13:33:00;2.85;;;1.10;;
20705;SDS011;10514;49.468;11.044;2022-10-16T13:35:30;2.97;;;1.00;;
20705;SDS011;10514;49.468;11.044;2022-10-16T13:38:31;1.38;;;1.27;;
20705;SDS011;10514;49.468;11.044;2022-10-16T13:46:01;2.20;;;1.30;;
20705;SDS011;10514;49.468;11.044;2022-10-16T13:48:27;3.13;;;1.15;;
20705;SDS011;10514;49.468;11.044;2022-10-16T13:51:03;1.85;;;1.17;;
20705;SDS011;10514;49.468;11.044;2022-10-16T13:53:30;1.60;;;1.10;;
20705;SDS011;10514;49.468;11.044;2022-10-16T13:55:57;2.83;;;0.95;;
20705;SDS011;10514;49.468;11.044;2022-10-16T13:58:25;1.05;;;0.88;;
20705;SDS011;10514;49.468;11.044;2022-10-16T14:00:55;1.75;;;0.98;;
20705;SDS011;10514;49.468;11.044;2022-10-16T14:03:21;3.35;;;1.08;;
20705;SDS011;10514;49.468;11.044;2022-10-16T14:05:52;1.05;;;0.90;;
20705;SDS011;10514;49.468;11.044;2022-10-16T14:08:18;2.15;;;1.13;;
20705;SDS011;10514;49.468;11.044;2022-10-16T14:10:47;2.03;;;0.85;;
20705;SDS011;10514;49.468;11.044;2022-10-16T14:13:16;2.85;;;0.80;;
20705;SDS011;10514;49.468;11.044;2022-10-16T14:15:45;4.88;;;0.80;;
20705;SDS011;10514;49.468;11.044;2022-10-16T14:18:18;1.67;;;1.00;;
20705;SDS011;10514;49.468;11.044;2022-10-16T14:20:45;1.50;;;1.00;;
20705;SDS011;10514;49.468;11.044;2022-10-16T14:25:46;1.50;;;0.82;;
20705;SDS011;10514;49.468;11.044;2022-10-16T14:30:48;2.20;;;1.10;;
20705;SDS011;10514;49.468;11.044;2022-10-16T14:33:21;2.20;;;1.10;;
20705;SDS011;10514;49.468;11.044;2022-10-16T14:35:57;2.08;;;1.27;;
20705;SDS011;10514;49.468;11.044;2022-10-16T14:38:24;1.77;;;1.20;;
20705;SDS011;10514;49.468;11.044;2022-10-16T14:40:50;1.98;;;1.10;;
20705;SDS011;10514;49.468;11.044;2022-10-16T14:43:38;1.95;;;1.08;;
20705;SDS011;10514;49.468;11.044;2022-10-16T14:46:03;1.20;;;1.10;;
20705;SDS011;10514;49.468;11.044;2022-10-16T14:48:42;4.03;;;1.00;;
20705;SDS011;10514;49.468;11.044;2022-10-16T14:51:11;1.85;;;0.80;;
20705;SDS011;10514;49.468;11.044;2022-10-16T14:53:39;1.70;;;1.00;;
20705;SDS011;10514;49.468;11.044;2022-10-16T14:56:08;1.88;;;0.80;;
20705;SDS011;10514;49.468;11.044;2022-10-16T14:58:34;1.65;;;1.15;;
20705;SDS011;10514;49.468;11.044;2022-10-16T15:01:00;1.65;;;0.98;;
20705;SDS011;10514;49.468;11.044;2022-10-16T15:03:27;1.60;;;0.93;;
20705;SDS011;10514;49.468;11.044;2022-10-16T15:05:53;1.42;;;1.05;;
20705;SDS011;10514;49.468;11.044;2022-10-16T15:08:19;3.97;;;1.20;;
20705;SDS011;10514;49.468;11.044;2022-10-16T15:10:45;1.20;;;1.08;;
20705;SDS011;10514;49.468;11.044;2022-10-16T15:13:14;3.45;;;1.27;;
20705;SDS011;10514;49.468;11.044;2022-10-16T15:15:41;1.40;;;1.00;;
20705;SDS011;10514;49.468;11.044;2022-10-16T15:18:08;2.78;;;1.13;;
20705;SDS011;10514;49.468;11.044;2022-10-16T15:20:34;4.28;;;1.45;;
20705;SDS011;10514;49.468;11.044;2022-10-16T15:23:02;5.88;;;1.30;;
20705;SDS011;10514;49.468;11.044;2022-10-16T15:25:30;2.97;;;1.50;;
20705;SDS011;10514;49.468;11.044;2022-10-16T15:27:57;4.75;;;1.70;;
20705;SDS011;10514;49.468;11.044;2022-10-16T15:30:23;2.50;;;1.40;;
20705;SDS011;10514;49.468;11.044;2022-10-16T15:32:49;2.25;;;1.77;;
20705;SDS011;10514;49.468;11.044;2022-10-16T15:35:15;3.83;;;1.50;;
20705;SDS011;10514;49.468;11.044;2022-10-16T15:37:41;2.60;;;1.60;;
20705;SDS011;10514;49.468;11.044;2022-10-16T15:40:08;3.45;;;1.50;;
20705;SDS011;10514;49.468;11.044;2022-10-16T15:42:34;3.08;;;1.52;;
20705;SDS011;10514;49.468;11.044;2022-10-16T15:45:00;2.97;;;1.55;;
20705;SDS011;10514;49.468;11.044;2022-10-16T15:47:26;3.20;;;1.80;;
20705;SDS011;10514;49.468;11.044;2022-10-16T15:49:52;2.50;;;1.20;;
20705;SDS011;10514;49.468;11.044;2022-10-16T15:52:18;1.52;;;1.30;;
20705;SDS011;10514;49.468;11.044;2022-10-16T15:54:44;4.60;;;1.55;;
20705;SDS011;10514;49.468;11.044;2022-10-16T15:57:10;3.78;;;1.90;;
20705;SDS011;10514;49.468;11.044;2022-10-16T15:59:36;2.80;;;1.77;;
20705;SDS011;10514;49.468;11.044;2022-10-16T16:02:02;3.47;;;1.98;;
20705;SDS011;10514;49.468;11.044;2022-10-16T16:04:31;3.90;;;2.40;;
20705;SDS011;10514;49.468;11.044;2022-10-16T16:06:57;4.72;;;2.50;;
20705;SDS011;10514;49.468;11.044;2022-10-16T16:09:23;4.32;;;2.35;;
20705;SDS011;10514;49.468;11.044;2022-10-16T16:11:49;4.93;;;2.67;;
20705;SDS011;10514;49.468;11.044;2022-10-16T16:14:17;5.10;;;2.72;;
20705;SDS011;10514;49.468;11.044;2022-10-16T16:16:43;5.22;;;2.55;;
20705;SDS011;10514;49.468;11.044;2022-10-16T16:19:09;9.35;;;2.83;;
20705;SDS011;10514;49.468;11.044;2022-10-16T16:21:35;4.68;;;2.75;;
20705;SDS011;10514;49.468;11.044;2022-10-16T16:24:00;7.82;;;2.45;;
20705;SDS011;10514;49.468;11.044;2022-10-16T16:26:32;4.50;;;2.25;;
20705;SDS011;10514;49.468;11.044;2022-10-16T16:29:01;3.88;;;2.45;;
20705;SDS011;10514;49.468;11.044;2022-10-16T16:31:27;7.00;;;2.95;;
20705;SDS011;10514;49.468;11.044;2022-10-16T16:33:54;5.43;;;3.10;;
20705;SDS011;10514;49.468;11.044;2022-10-16T16:36:22;4.63;;;2.63;;
20705;SDS011;10514;49.468;11.044;2022-10-16T16:38:48;4.95;;;2.20;;